Time;durP1;ratioP1;P1;durP2;ratioP2;P2;SDS_P1;SDS_P2;PMS_P1;PMS_P2;Temp;Humidity;BMP_temperature;BMP_pressure;BME280_temperature;BME280_humidity;BME280_pressure;Samples;Min_cycle;Max_cycle;Signal;HPM_P1;HPM_P2
2022/12/07 00:00:49;;;;;;;15.82;15.02;;;;;;;2.91;100.00;100429.91;5021693;28;20061;-73
2022/12/07 00:03:15;;;;;;;17.48;16.63;;;;;;;2.87;100.00;100412.41;5023498;28;20137;-73
2022/12/07 00:05:40;;;;;;;17.15;16.35;;;;;;;2.93;100.00;100409.06;5022371;28;20034;-73
2022/12/07 00:08:05;;;;;;;16.10;15.30;;;;;;;2.95;100.00;100403.03;5024807;28;20108;-73
2022/12/07 00:10:33;;;;;;;17.45;16.63;;;;;;;2.96;100.00;100409.13;5023623;28;20048;-73
2022/12/07 00:12:58;;;;;;;24.17;23.02;;;;;;;2.96;100.00;100409.13;5020793;28;20073;-73
2022/12/07 00:15:24;;;;;;;16.95;16.15;;;;;;;2.94;100.00;100405.63;5023694;28;20064;-73
2022/12/07 00:17:49;;;;;;;18.90;18.00;;;;;;;2.94;100.00;100390.00;5021814;28;20037;-73
2022/12/07 00:20:14;;;;;;;16.20;15.40;;;;;;;2.89;100.00;100402.03;5004833;28;20037;-73
2022/12/07 00:22:40;;;;;;;15.98;15.18;;;;;;;2.95;100.00;100396.94;5023672;28;20033;-73
2022/12/07 00:25:05;;;;;;;16.58;15.77;;;;;;;2.89;100.00;100395.09;5024005;28;20489;-73
2022/12/07 00:27:31;;;;;;;18.38;17.48;;;;;;;2.88;100.00;100390.69;5025148;28;20095;-73
2022/12/07 00:29:56;;;;;;;16.90;16.10;;;;;;;2.88;100.00;100385.50;5020551;28;20046;-73
2022/12/07 00:32:21;;;;;;;20.33;19.33;;;;;;;2.85;100.00;100378.47;5027454;28;20034;-73
2022/12/07 00:34:46;;;;;;;17.20;16.40;;;;;;;2.87;100.00;100381.13;5024918;28;20044;-73
2022/12/07 00:37:12;;;;;;;16.67;15.88;;;;;;;2.84;100.00;100373.25;5021679;28;20041;-73
2022/12/07 00:39:38;;;;;;;18.05;17.15;;;;;;;2.91;100.00;100380.38;5024015;28;20048;-73
2022/12/07 00:42:03;;;;;;;18.55;17.65;;;;;;;2.83;100.00;100382.81;5020667;28;20084;-73
2022/12/07 00:44:29;;;;;;;14.88;14.18;;;;;;;2.78;100.00;100383.56;5023685;28;20041;-73
2022/12/07 00:46:55;;;;;;;14.52;13.82;;;;;;;2.77;100.00;100376.56;5020415;28;20038;-73
2022/12/07 00:49:20;;;;;;;14.50;13.80;;;;;;;2.72;100.00;100373.84;5022488;28;20496;-74
2022/12/07 00:51:48;;;;;;;14.40;13.70;;;;;;;2.73;100.00;100383.44;5021930;28;20072;-73
2022/12/07 00:54:13;;;;;;;12.95;12.25;;;;;;;2.62;100.00;100375.38;5021092;28;20049;-73
2022/12/07 00:56:38;;;;;;;15.02;14.32;;;;;;;2.60;100.00;100390.09;5023239;28;20049;-73
2022/12/07 00:59:04;;;;;;;16.30;15.50;;;;;;;2.59;100.00;100388.34;5020092;28;20100;-73
2022/12/07 01:01:32;;;;;;;13.55;12.85;;;;;;;2.61;100.00;100390.97;5020268;28;20042;-73
2022/12/07 01:04:00;;;;;;;14.10;13.40;;;;;;;2.64;100.00;100380.59;5022006;28;20037;-73
2022/12/07 01:06:26;;;;;;;16.27;15.48;;;;;;;2.57;100.00;100397.84;5019289;28;20065;-73
2022/12/07 01:08:52;;;;;;;15.98;15.18;;;;;;;2.55;100.00;100390.81;5022683;28;20119;-72
2022/12/07 01:11:20;;;;;;;14.60;13.90;;;;;;;2.56;100.00;100385.63;5023433;28;20206;-73
2022/12/07 01:13:46;;;;;;;14.73;14.02;;;;;;;2.56;100.00;100393.44;5020649;28;20493;-73
2022/12/07 01:16:14;;;;;;;12.52;11.93;;;;;;;2.61;100.00;100393.56;5021636;28;20038;-73
2022/12/07 01:18:40;;;;;;;15.88;15.07;;;;;;;2.55;100.00;100394.31;5023376;28;20040;-73
2022/12/07 01:21:10;;;;;;;13.82;13.13;;;;;;;2.56;100.00;100384.75;5023950;28;20552;-73
2022/12/07 01:23:36;;;;;;;16.33;15.52;;;;;;;2.57;100.00;100394.34;5020170;28;20044;-73
2022/12/07 01:26:06;;;;;;;20.60;19.58;;;;;;;2.60;100.00;100387.47;5021716;28;20043;-73
2022/12/07 01:28:32;;;;;;;21.95;20.80;;;;;;;2.51;100.00;100383.75;5022102;28;20951;-73
2022/12/07 01:30:59;;;;;;;11.95;11.35;;;;;;;2.49;100.00;100383.75;5023478;28;20049;-73
2022/12/07 01:33:28;;;;;;;17.52;16.67;;;;;;;2.43;100.00;100391.38;5021601;28;20447;-73
2022/12/07 01:35:53;;;;;;;16.20;15.43;;;;;;;2.47;100.00;100384.56;5027476;28;20051;-73
2022/12/07 01:38:19;;;;;;;11.32;10.73;;;;;;;2.49;100.00;100381.13;5024907;28;20477;-73
2022/12/07 01:40:44;;;;;;;12.90;12.25;;;;;;;2.52;100.00;100386.41;5019694;28;20037;-73
2022/12/07 01:43:19;;;;;;;10.77;10.18;;;;;;;2.54;100.00;100384.75;5022276;28;20041;-73
2022/12/07 01:45:45;;;;;;;10.90;10.30;;;;;;;2.53;100.00;100382.97;5025678;28;20029;-73
2022/12/07 01:48:14;;;;;;;11.85;11.25;;;;;;;2.48;100.00;100384.56;5021400;28;20166;-73
2022/12/07 01:50:41;;;;;;;11.13;10.52;;;;;;;2.51;100.00;100378.56;5020281;28;20128;-73
2022/12/07 01:53:09;;;;;;;12.00;11.40;;;;;;;2.60;100.00;100377.06;5026758;28;20041;-73
2022/12/07 01:55:40;;;;;;;11.85;11.25;;;;;;;2.58;100.00;100370.03;5023626;28;20044;-73
2022/12/07 01:58:05;;;;;;;11.05;10.45;;;;;;;2.59;100.00;100371.78;5025279;28;20034;-73
2022/12/07 02:00:31;;;;;;;11.77;11.18;;;;;;;2.62;100.00;100367.56;5026694;28;20104;-73
2022/12/07 02:03:04;;;;;;;11.52;10.93;;;;;;;2.69;100.00;100375.50;5026223;28;20040;-73
2022/12/07 02:05:31;;;;;;;9.85;9.35;;;;;;;2.66;100.00;100378.03;5023647;28;20038;-73
2022/12/07 02:07:57;;;;;;;10.82;10.23;;;;;;;2.66;100.00;100372.84;5023166;28;20033;-73
2022/12/07 02:10:27;;;;;;;11.93;11.32;;;;;;;2.70;100.00;100367.75;5024307;28;20033;-73
2022/12/07 02:13:12;;;;;;;12.90;12.25;;;;;;;2.68;100.00;100371.16;5028106;28;20025;-73
2022/12/07 02:16:03;;;;;;;10.65;10.05;;;;;;;2.71;100.00;100366.00;5025715;28;20484;-73
2022/12/07 02:19:06;;;;;;;10.18;9.68;;;;;;;2.74;100.00;100360.84;5026123;28;21713;-73
2022/12/07 02:21:39;;;;;;;10.43;9.90;;;;;;;2.74;100.00;100356.53;5025434;28;20124;-73
2022/12/07 02:24:14;;;;;;;11.57;10.98;;;;;;;2.79;100.00;100359.25;5025620;28;20049;-73
2022/12/07 02:26:48;;;;;;;11.07;10.48;;;;;;;2.83;100.00;100355.88;5025995;28;20499;-73
2022/12/07 02:29:21;;;;;;;11.02;10.43;;;;;;;2.83;100.00;100354.13;5025211;28;20078;-73
2022/12/07 02:31:59;;;;;;;9.48;8.98;;;;;;;2.83;100.00;100351.53;5023220;28;20044;-73
2022/12/07 02:34:41;;;;;;;10.05;9.45;;;;;;;2.83;100.00;100330.69;5023755;28;20056;-73
2022/12/07 02:37:18;;;;;;;9.90;9.40;;;;;;;2.90;100.00;100336.00;5026935;28;20091;-73
2022/12/07 02:39:53;;;;;;;9.20;8.70;;;;;;;2.86;100.00;100337.69;5022717;28;20037;-73
2022/12/07 02:42:25;;;;;;;10.77;10.18;;;;;;;2.85;100.00;100333.28;5029579;28;20042;-73
2022/12/07 02:44:51;;;;;;;9.00;8.50;;;;;;;2.86;100.00;100329.88;5022925;28;20460;-73
2022/12/07 02:47:19;;;;;;;9.48;8.98;;;;;;;2.77;100.00;100340.06;5032939;28;20504;-73
2022/12/07 02:49:46;;;;;;;9.93;9.43;;;;;;;2.63;100.00;100326.75;5012061;28;20117;-73
2022/12/07 02:52:11;;;;;;;11.52;10.93;;;;;;;2.49;100.00;100322.91;5022096;28;20396;-73
2022/12/07 02:54:36;;;;;;;9.27;8.77;;;;;;;2.38;100.00;100320.97;5028419;28;20029;-73
2022/12/07 02:57:14;;;;;;;8.85;8.35;;;;;;;2.39;100.00;100317.50;5022735;28;20464;-73
2022/12/07 03:00:01;;;;;;;8.40;7.90;;;;;;;2.29;100.00;100309.44;5023352;28;20065;-73
2022/12/07 03:02:38;;;;;;;8.63;8.13;;;;;;;2.18;100.00;100312.69;5025823;28;20040;-73
2022/12/07 03:05:27;;;;;;;10.07;9.57;;;;;;;2.07;100.00;100319.34;5027349;28;20057;-73
2022/12/07 03:08:05;;;;;;;9.90;9.40;;;;;;;1.94;100.00;100314.69;5021500;28;20034;-73
2022/12/07 03:10:39;;;;;;;8.50;8.00;;;;;;;1.88;100.00;100311.91;5026181;28;20083;-73
2022/12/07 03:13:14;;;;;;;9.15;8.65;;;;;;;1.83;100.00;100311.78;5025677;28;20034;-73
2022/12/07 03:15:46;;;;;;;12.45;11.77;;;;;;;1.73;100.00;100308.09;5021902;28;20531;-73
2022/12/07 03:18:15;;;;;;;8.80;8.30;;;;;;;1.70;100.00;100305.41;5004942;28;20041;-73
2022/12/07 03:20:44;;;;;;;10.20;9.70;;;;;;;1.65;100.00;100312.22;5022040;28;20386;-73
2022/12/07 03:23:12;;;;;;;8.57;8.07;;;;;;;1.59;100.00;100309.44;5024552;28;20443;-73
2022/12/07 03:25:48;;;;;;;10.05;9.55;;;;;;;1.55;100.00;100310.22;5014757;28;20080;-73
2022/12/07 03:28:17;;;;;;;10.27;9.68;;;;;;;1.58;100.00;100299.88;5021995;28;20037;-73
2022/12/07 03:31:27;;;;;;;7.93;7.47;;;;;;;1.63;100.00;100300.88;5023875;28;20107;-73
2022/12/07 03:34:10;;;;;;;8.68;8.18;;;;;;;1.71;100.00;100304.56;4994333;28;20415;-73
2022/12/07 03:36:42;;;;;;;9.50;9.00;;;;;;;1.81;100.00;100289.16;5007750;28;20034;-73
2022/12/07 03:39:31;;;;;;;9.27;8.77;;;;;;;1.84;100.00;100286.66;5022400;28;20048;-73
2022/12/07 03:41:59;;;;;;;8.63;8.13;;;;;;;1.79;100.00;100286.53;5022428;28;20037;-73
2022/12/07 03:44:24;;;;;;;8.40;7.90;;;;;;;1.75;100.00;100282.09;5023146;28;20041;-73
2022/12/07 03:47:03;;;;;;;8.38;7.88;;;;;;;1.73;100.00;100278.59;5024556;28;20042;-73
2022/12/07 03:49:45;;;;;;;8.35;7.85;;;;;;;1.71;100.00;100275.94;5021952;28;20045;-73
2022/12/07 03:52:20;;;;;;;9.50;9.00;;;;;;;1.69;100.00;100280.22;5021549;28;20033;-73
2022/12/07 03:55:17;;;;;;;8.48;7.97;;;;;;;1.73;100.00;100270.78;5022836;28;20116;-73
2022/12/07 03:57:44;;;;;;;8.82;8.32;;;;;;;1.71;100.00;100280.28;5027940;28;20040;-73
2022/12/07 04:00:11;;;;;;;8.55;8.05;;;;;;;1.66;100.00;100274.94;5021149;28;20034;-73
2022/12/07 04:02:40;;;;;;;8.63;8.13;;;;;;;1.67;100.00;100274.09;5023483;28;20384;-73
2022/12/07 04:05:06;;;;;;;10.05;9.55;;;;;;;1.63;100.00;100263.59;5022696;28;20037;-73
2022/12/07 04:07:32;;;;;;;7.80;7.40;;;;;;;1.62;100.00;100260.09;5021965;28;20088;-73
2022/12/07 04:09:57;;;;;;;8.52;8.02;;;;;;;1.58;100.00;100258.25;5025098;28;20041;-73
2022/12/07 04:12:23;;;;;;;11.43;10.82;;;;;;;1.57;100.00;100264.28;5024382;28;20041;-73
2022/12/07 04:14:49;;;;;;;8.70;8.20;;;;;;;1.53;100.00;100246.84;5020615;28;20070;-73
2022/12/07 04:17:14;;;;;;;8.40;7.90;;;;;;;1.50;100.00;100247.66;5023141;28;20068;-73
2022/12/07 04:19:39;;;;;;;8.30;7.85;;;;;;;1.44;100.00;100252.72;5023671;28;20021;-73
2022/12/07 04:22:05;;;;;;;9.13;8.63;;;;;;;1.43;100.00;100250.06;5022151;28;20529;-73
2022/12/07 04:24:31;;;;;;;7.97;7.57;;;;;;;1.40;100.00;100239.59;5023491;28;20403;-73
2022/12/07 04:26:56;;;;;;;7.55;7.15;;;;;;;1.39;100.00;100238.72;5020567;28;20042;-73
2022/12/07 04:29:22;;;;;;;7.85;7.45;;;;;;;1.46;100.00;100240.59;5023938;28;20117;-73
2022/12/07 04:31:48;;;;;;;8.20;7.70;;;;;;;1.56;100.00;100236.53;5024307;28;20034;-73
2022/12/07 04:34:14;;;;;;;7.68;7.28;;;;;;;1.65;100.00;100234.19;5022467;28;20075;-73
2022/12/07 04:36:41;;;;;;;8.30;7.80;;;;;;;1.67;100.00;100224.66;5019734;28;20091;-73
2022/12/07 04:39:08;;;;;;;7.90;7.50;;;;;;;1.72;100.00;100223.06;5023367;28;20029;-73
2022/12/07 04:41:33;;;;;;;8.93;8.43;;;;;;;1.82;100.00;100218.09;5020175;28;20123;-73
2022/12/07 04:44:06;;;;;;;10.82;10.23;;;;;;;1.90;100.00;100216.53;5027803;28;20041;-73
2022/12/07 04:46:32;;;;;;;7.50;7.10;;;;;;;1.88;100.00;100208.69;5024363;28;20030;-73
2022/12/07 04:48:58;;;;;;;7.45;7.05;;;;;;;1.95;100.00;100214.94;5023563;28;20029;-73
2022/12/07 04:51:28;;;;;;;8.70;8.20;;;;;;;2.02;100.00;100215.94;5029121;28;20033;-73
2022/12/07 04:53:54;;;;;;;8.57;8.07;;;;;;;2.01;100.00;100220.28;5026610;28;20037;-73
2022/12/07 04:56:20;;;;;;;7.63;7.22;;;;;;;2.01;100.00;100209.84;5021439;28;20066;-73
2022/12/07 04:58:46;;;;;;;8.77;8.27;;;;;;;2.09;100.00;100202.22;5028782;28;20067;-74
2022/12/07 05:01:13;;;;;;;7.60;7.20;;;;;;;2.11;100.00;100197.94;5023941;28;20029;-73
2022/12/07 05:03:39;;;;;;;7.35;6.95;;;;;;;2.12;100.00;100200.59;5028547;28;20036;-74
2022/12/07 05:06:05;;;;;;;7.38;6.97;;;;;;;2.12;100.00;100203.19;5022621;28;20041;-76
2022/12/07 05:08:32;;;;;;;7.70;7.30;;;;;;;2.18;100.00;100205.06;5019221;28;20037;-74
2022/12/07 05:10:57;;;;;;;6.97;6.57;;;;;;;2.18;100.00;100197.25;5035563;22;20021;-77
2022/12/07 05:13:23;;;;;;;6.95;6.55;;;;;;;2.21;100.00;100205.13;5026968;28;20479;-77
2022/12/07 05:15:49;;;;;;;7.32;6.93;;;;;;;2.25;100.00;100199.13;5020062;28;20492;-75
2022/12/07 05:18:14;;;;;;;7.15;6.75;;;;;;;2.19;100.00;100205.06;5023259;28;20636;-77
2022/12/07 05:20:40;;;;;;;7.20;6.80;;;;;;;2.22;100.00;100192.97;5020238;28;20040;-77
2022/12/07 05:23:05;;;;;;;7.93;7.47;;;;;;;2.21;100.00;100188.63;5022407;28;20045;-77
2022/12/07 05:25:31;;;;;;;7.20;6.80;;;;;;;2.21;100.00;100186.03;5026962;28;20454;-74
2022/12/07 05:27:56;;;;;;;8.07;7.57;;;;;;;2.15;100.00;100174.63;5022681;28;20052;-76
2022/12/07 05:30:23;;;;;;;6.90;6.50;;;;;;;2.12;100.00;100174.56;5022638;28;20079;-77
2022/12/07 05:32:49;;;;;;;7.00;6.60;;;;;;;2.16;100.00;100167.69;5020429;28;20041;-77
2022/12/07 05:35:14;;;;;;;6.43;6.03;;;;;;;2.13;100.00;100163.28;5020120;28;20044;-77
2022/12/07 05:37:39;;;;;;;6.78;6.38;;;;;;;2.10;100.00;100155.41;5019632;28;20065;-77
2022/12/07 05:40:06;;;;;;;7.28;6.88;;;;;;;2.10;100.00;100163.22;5025243;28;20072;-76
2022/12/07 05:42:31;;;;;;;8.75;8.25;;;;;;;2.08;100.00;100159.72;5028794;28;20509;-76
2022/12/07 05:44:57;;;;;;;9.55;9.05;;;;;;;2.04;100.00;100152.66;5020189;28;20056;-76
2022/12/07 05:47:22;;;;;;;12.45;11.75;;;;;;;2.03;100.00;100160.44;5022865;28;20044;-77
2022/12/07 05:49:47;;;;;;;11.13;10.52;;;;;;;2.11;100.00;100149.34;5019733;28;20041;-76
2022/12/07 05:52:13;;;;;;;11.07;10.48;;;;;;;2.16;100.00;100152.06;5017806;28;20067;-76
2022/12/07 05:54:38;;;;;;;10.80;10.20;;;;;;;2.17;100.00;100154.72;5028679;28;20038;-76
2022/12/07 05:57:03;;;;;;;10.43;9.82;;;;;;;2.20;100.00;100159.06;5028084;28;20040;-76
2022/12/07 05:59:29;;;;;;;11.38;10.75;;;;;;;2.22;100.00;100157.38;5030452;28;20060;-76
2022/12/07 06:02:03;;;;;;;9.77;9.27;;;;;;;2.26;100.00;100158.34;5032016;28;20108;-76
2022/12/07 06:04:33;;;;;;;11.82;11.23;;;;;;;2.30;100.00;100162.75;5019793;28;20038;-76
2022/12/07 06:06:58;;;;;;;11.32;10.73;;;;;;;2.34;100.00;100151.59;5017604;28;20045;-76
2022/12/07 06:09:26;;;;;;;11.60;10.90;;;;;;;2.41;100.00;100145.63;5018823;28;20424;-76
2022/12/07 06:14:36;;;;;;;9.68;9.15;;;;;;;2.41;100.00;100163.88;5021179;28;20037;-76
2022/12/07 06:17:01;;;;;;;9.82;9.23;;;;;;;2.31;100.00;100167.16;5018023;28;20040;-76
2022/12/07 06:19:27;;;;;;;11.07;10.38;;;;;;;2.06;100.00;100169.19;5022295;28;20033;-76
2022/12/07 06:21:52;;;;;;;10.50;9.90;;;;;;;1.86;100.00;100167.84;5020090;28;20037;-76
2022/12/07 06:24:18;;;;;;;9.55;8.95;;;;;;;1.75;100.00;100160.69;5022579;28;20543;-77
2022/12/07 06:26:44;;;;;;;10.63;10.02;;;;;;;1.71;100.00;100164.06;5027020;28;20091;-76
2022/12/07 06:29:10;;;;;;;9.82;9.23;;;;;;;1.71;100.00;100173.59;5021718;28;20034;-76
2022/12/07 06:31:37;;;;;;;10.38;9.77;;;;;;;1.64;100.00;100167.34;5021150;28;20041;-77
2022/12/07 06:34:05;;;;;;;10.35;9.75;;;;;;;1.58;100.00;100162.03;5019515;28;20046;-76
2022/12/07 06:36:31;;;;;;;10.10;9.50;;;;;;;1.59;100.00;100158.56;5019366;28;20512;-76
2022/12/07 06:38:56;;;;;;;9.82;9.23;;;;;;;1.53;100.00;100158.44;5020932;28;20034;-75
2022/12/07 06:41:22;;;;;;;9.52;8.95;;;;;;;1.59;100.00;100158.56;5026484;28;20113;-76
2022/12/07 06:43:47;;;;;;;8.75;8.25;;;;;;;1.68;100.00;100151.00;5029854;28;20108;-75
2022/12/07 06:46:14;;;;;;;10.13;9.52;;;;;;;1.73;100.00;100157.19;5028950;28;20029;-76
2022/12/07 06:48:40;;;;;;;9.98;9.38;;;;;;;1.75;100.00;100160.69;5026208;28;20143;-76
2022/12/07 06:51:05;;;;;;;9.98;9.38;;;;;;;1.86;100.00;100153.16;5029312;28;20034;-76
2022/12/07 06:53:31;;;;;;;9.23;8.63;;;;;;;1.84;100.00;100159.16;5025320;28;20496;-76
2022/12/07 06:55:56;;;;;;;9.80;9.20;;;;;;;1.86;100.00;100160.06;5023066;28;20037;-76
2022/12/07 06:58:21;;;;;;;10.23;9.63;;;;;;;1.85;100.00;100155.69;5030880;28;20124;-76
2022/12/07 07:00:49;;;;;;;9.90;9.30;;;;;;;1.91;100.00;100158.44;5028797;28;20080;-76
2022/12/07 07:03:15;;;;;;;9.88;9.27;;;;;;;1.98;100.00;100153.41;5024892;28;20072;-76
2022/12/07 07:05:41;;;;;;;10.07;9.48;;;;;;;1.99;100.00;100159.47;5023258;28;20038;-75
2022/12/07 07:08:06;;;;;;;8.15;7.55;;;;;;;2.08;100.00;100157.09;5021612;28;20034;-76
2022/12/07 07:10:31;;;;;;;9.23;8.63;;;;;;;2.09;100.00;100158.84;5026987;28;20159;-76
2022/12/07 07:12:57;;;;;;;9.07;8.55;;;;;;;2.13;100.00;100158.09;5023264;28;20041;-76
2022/12/07 07:15:22;;;;;;;9.32;8.77;;;;;;;2.13;100.00;100155.47;5025131;28;20037;-76
2022/12/07 07:17:47;;;;;;;8.70;8.20;;;;;;;2.13;100.00;100154.59;5022461;28;20036;-76
2022/12/07 07:20:13;;;;;;;8.18;7.68;;;;;;;2.15;100.00;100160.72;5024371;28;20041;-76
2022/12/07 07:22:38;;;;;;;7.57;7.07;;;;;;;2.19;100.00;100160.81;5025608;28;20034;-76
2022/12/07 07:25:04;;;;;;;7.88;7.38;;;;;;;2.22;100.00;100156.53;5023070;28;20124;-76
2022/12/07 07:27:29;;;;;;;6.95;6.55;;;;;;;2.28;100.00;100141.91;5025325;28;20567;-76
2022/12/07 07:29:54;;;;;;;7.65;7.15;;;;;;;2.33;100.00;100137.69;5029072;28;20037;-76
2022/12/07 07:32:21;;;;;;;7.72;7.22;;;;;;;2.34;100.00;100135.97;5027356;28;20086;-76
2022/12/07 07:34:46;;;;;;;7.68;7.18;;;;;;;2.37;100.00;100141.22;5026086;28;20042;-75
2022/12/07 07:37:12;;;;;;;6.15;5.75;;;;;;;2.39;100.00;100145.63;5021579;28;20048;-76
2022/12/07 07:39:38;;;;;;;7.20;6.80;;;;;;;2.39;100.00;100149.94;5022971;28;20029;-76
2022/12/07 07:42:04;;;;;;;7.90;7.40;;;;;;;2.41;100.00;100149.13;5024942;28;20038;-77
2022/12/07 07:44:31;;;;;;;7.05;6.55;;;;;;;2.51;100.00;100154.53;5007168;28;20036;-76
2022/12/07 07:46:57;;;;;;;7.60;7.10;;;;;;;2.52;100.00;100154.56;5021712;28;20041;-76
2022/12/07 07:49:22;;;;;;;7.65;7.15;;;;;;;2.55;100.00;100159.84;5022405;28;20060;-76
2022/12/07 07:51:47;;;;;;;8.15;7.65;;;;;;;2.72;100.00;100160.16;5024332;28;20413;-76
2022/12/07 07:54:13;;;;;;;7.28;6.88;;;;;;;2.73;100.00;100161.06;5027113;28;20595;-76
2022/12/07 07:56:38;;;;;;;580.08;321.77;;;;;;;2.66;100.00;100151.34;5024380;28;20044;-75
2022/12/07 07:59:03;;;;;;;5.05;4.53;;;;;;;2.72;100.00;100154.06;5021274;28;20046;-76
2022/12/07 08:01:29;;;;;;;3.80;2.75;;;;;;;2.70;100.00;100156.66;5024475;28;20033;-76
2022/12/07 08:03:54;;;;;;;3.95;2.92;;;;;;;2.71;100.00;100147.97;5025063;28;20038;-76
2022/12/07 08:06:19;;;;;;;3.85;2.65;;;;;;;2.80;100.00;100142.06;5020051;28;20040;-76
2022/12/07 08:08:44;;;;;;;3.72;2.92;;;;;;;2.83;100.00;100145.63;5022859;28;20085;-76
2022/12/07 08:11:10;;;;;;;4.70;3.10;;;;;;;2.86;100.00;100150.00;5021894;28;20030;-76
2022/12/07 08:13:36;;;;;;;4.63;3.00;;;;;;;2.79;100.00;100145.53;5024355;28;20488;-76
2022/12/07 08:16:09;;;;;;;4.00;2.95;;;;;;;2.79;100.00;100145.53;5024105;28;20051;-76
2022/12/07 08:18:41;;;;;;;3.58;2.80;;;;;;;2.76;100.00;100148.09;5022197;28;20034;-76
2022/12/07 08:21:09;;;;;;;3.40;2.60;;;;;;;2.75;100.00;100142.00;5025854;28;20033;-76
2022/12/07 08:23:34;;;;;;;3.20;2.28;;;;;;;2.83;100.00;100143.03;5024150;28;20029;-76
2022/12/07 08:26:01;;;;;;;3.97;2.72;;;;;;;2.85;100.00;100151.72;5021054;28;20519;-76
2022/12/07 08:28:28;;;;;;;3.78;2.70;;;;;;;2.92;100.00;100152.72;5024360;28;20029;-76
2022/12/07 08:31:02;;;;;;;3.42;2.33;;;;;;;3.00;100.00;100143.31;5025017;28;20499;-76
2022/12/07 08:33:28;;;;;;;3.55;2.53;;;;;;;3.07;100.00;100137.38;5028122;28;20510;-76
2022/12/07 08:35:54;;;;;;;3.63;2.50;;;;;;;3.13;100.00;100141.81;5025820;28;20034;-76
2022/12/07 08:38:19;;;;;;;3.58;2.90;;;;;;;3.17;100.00;100137.50;5020035;28;20530;-76
2022/12/07 08:40:44;;;;;;;3.88;3.22;;;;;;;3.21;100.00;100142.81;5022314;28;20037;-76
2022/12/07 08:43:10;;;;;;;3.70;2.80;;;;;;;3.28;100.00;100151.63;5021782;28;20121;-76
2022/12/07 08:45:35;;;;;;;3.92;2.90;;;;;;;3.27;100.00;100137.72;5025759;28;20090;-76
2022/12/07 08:48:10;;;;;;;3.80;3.00;;;;;;;3.29;100.00;100145.56;5021745;28;20500;-76
2022/12/07 08:50:37;;;;;;;4.68;3.10;;;;;;;3.27;100.00;100136.81;5022107;28;20049;-76
2022/12/07 08:53:04;;;;;;;4.28;2.90;;;;;;;3.29;100.00;100148.16;5027327;28;20037;-76
2022/12/07 08:55:31;;;;;;;4.07;3.10;;;;;;;3.38;100.00;100142.22;5025988;28;20091;-76
2022/12/07 08:57:58;;;;;;;4.38;2.70;;;;;;;3.40;100.00;100145.72;5026637;28;20033;-76
2022/12/07 09:00:25;;;;;;;3.53;2.70;;;;;;;3.38;100.00;100143.13;5021085;28;20066;-76
2022/12/07 09:02:51;;;;;;;5.68;3.15;;;;;;;3.31;100.00;100146.47;5023925;28;20034;-76
2022/12/07 09:05:16;;;;;;;5.53;2.92;;;;;;;3.40;100.00;100146.59;5027146;28;20044;-76
2022/12/07 09:07:47;;;;;;;3.92;2.97;;;;;;;3.44;100.00;100143.22;5028592;28;20064;-76
2022/12/07 09:10:12;;;;;;;3.75;2.97;;;;;;;3.53;100.00;100152.91;5020554;28;20065;-76
2022/12/07 09:12:38;;;;;;;3.90;2.53;;;;;;;3.58;100.00;100145.16;5023587;28;20522;-76
2022/12/07 09:15:04;;;;;;;3.55;2.60;;;;;;;3.57;100.00;100154.72;5021753;28;20036;-77
2022/12/07 09:17:32;;;;;;;3.88;2.83;;;;;;;3.62;100.00;100147.84;5022023;28;20037;-76
2022/12/07 09:19:58;;;;;;;3.90;2.92;;;;;;;3.77;100.00;100141.09;5019967;28;20484;-76
2022/12/07 09:22:23;;;;;;;4.57;2.50;;;;;;;3.92;100.00;100157.88;5025433;28;20032;-76
2022/12/07 09:24:48;;;;;;;4.03;2.88;;;;;;;3.84;100.00;100154.28;5024810;28;20343;-76
2022/12/07 09:27:14;;;;;;;4.07;2.58;;;;;;;3.82;100.00;100150.75;5024181;28;20091;-76
2022/12/07 09:29:39;;;;;;;5.55;2.80;;;;;;;3.88;100.00;100156.09;5023277;28;20083;-76
2022/12/07 09:32:04;;;;;;;3.10;2.40;;;;;;;3.85;100.00;100155.13;5023456;28;20041;-76
2022/12/07 09:34:31;;;;;;;3.80;2.67;;;;;;;3.93;100.00;100154.41;5023618;28;20105;-76
2022/12/07 09:36:57;;;;;;;3.40;2.60;;;;;;;3.97;100.00;100157.94;5019309;28;20044;-76
2022/12/07 09:39:23;;;;;;;4.05;2.67;;;;;;;4.02;100.00;100169.34;5022494;28;20041;-76
2022/12/07 09:41:48;;;;;;;3.17;2.28;;;;;;;4.03;100.00;100149.31;5020579;28;20034;-76
2022/12/07 09:44:33;;;;;;;3.22;2.30;;;;;;;4.03;100.00;100150.19;5027167;28;20404;-77
2022/12/07 09:46:59;;;;;;;3.25;2.40;;;;;;;4.08;100.00;100147.66;5020587;28;20423;-76
2022/12/07 09:49:28;;;;;;;3.25;2.42;;;;;;;4.15;100.00;100154.72;5018250;28;20648;-76
2022/12/07 09:52:19;;;;;;;2.92;2.17;;;;;;;4.29;100.00;100147.94;5020906;28;20088;-76
2022/12/07 09:54:48;;;;;;;2.70;2.13;;;;;;;4.24;100.00;100149.59;5022914;28;20044;-77
2022/12/07 09:57:14;;;;;;;4.35;2.15;;;;;;;4.29;100.00;100142.69;5023505;28;20038;-76
2022/12/07 09:59:40;;;;;;;4.22;2.08;;;;;;;4.32;100.00;100147.09;5022596;28;20022;-76
2022/12/07 10:02:41;;;;;;;3.90;2.20;;;;;;;4.26;100.00;100153.13;5022699;28;20116;-76
2022/12/07 10:05:12;;;;;;;3.42;2.22;;;;;;;4.32;100.00;100145.38;4994148;28;20060;-76
2022/12/07 10:07:37;;;;;;;2.88;2.00;;;;;;;4.32;100.00;100132.31;5016265;28;20053;-76
2022/12/07 10:10:14;;;;;;;2.50;1.88;;;;;;;4.37;100.00;100145.41;5021391;28;20171;-76
2022/12/07 10:12:56;;;;;;;3.65;2.30;;;;;;;4.41;100.00;100138.53;5027502;28;20603;-76
2022/12/07 10:15:22;;;;;;;3.40;2.00;;;;;;;4.46;100.00;100134.22;5026981;28;20469;-76
2022/12/07 10:17:51;;;;;;;2.60;2.00;;;;;;;4.53;100.00;100146.47;5023467;28;20112;-76
2022/12/07 10:20:22;;;;;;;3.90;2.85;;;;;;;4.44;100.00;100136.81;5023483;28;20040;-76
2022/12/07 10:22:59;;;;;;;3.45;2.75;;;;;;;4.47;100.00;100130.75;5026826;28;20072;-76
2022/12/07 10:25:32;;;;;;;5.13;2.30;;;;;;;4.57;100.00;100143.06;5025601;28;20496;-76
2022/12/07 10:28:02;;;;;;;2.90;1.90;;;;;;;4.52;100.00;100139.50;5027491;28;20408;-76
2022/12/07 10:30:29;;;;;;;3.13;1.77;;;;;;;4.52;100.00;100131.69;5028206;28;20038;-76
2022/12/07 10:32:54;;;;;;;3.97;2.10;;;;;;;4.65;100.00;100135.31;5029777;28;20155;-76
2022/12/07 10:35:30;;;;;;;3.53;1.90;;;;;;;4.57;100.00;100143.94;5028353;28;20552;-76
2022/12/07 10:37:58;;;;;;;3.42;2.10;;;;;;;4.55;100.00;100144.78;5022322;28;20496;-77
2022/12/07 10:40:35;;;;;;;2.38;1.70;;;;;;;4.53;100.00;100151.72;5005586;28;20033;-77
2022/12/07 10:43:14;;;;;;;3.50;2.20;;;;;;;4.64;100.00;100139.66;5027320;28;20032;-76
2022/12/07 10:45:51;;;;;;;3.20;1.73;;;;;;;4.60;100.00;100140.47;5022596;28;20412;-76
2022/12/07 10:48:42;;;;;;;1.85;1.55;;;;;;;4.58;100.00;100155.25;5023730;28;20539;-76
2022/12/07 10:51:20;;;;;;;2.95;1.75;;;;;;;4.52;100.00;100144.75;5025079;28;20029;-76
2022/12/07 10:53:54;;;;;;;2.25;1.58;;;;;;;4.41;100.00;100142.00;5025575;28;20049;-76
2022/12/07 10:56:40;;;;;;;3.53;1.45;;;;;;;4.28;100.00;100151.41;5022840;28;20038;-76
2022/12/07 10:59:14;;;;;;;2.38;1.10;;;;;;;3.84;100.00;100149.03;5025081;28;20043;-76
2022/12/07 11:01:54;;;;;;;1.77;1.30;;;;;;;3.49;100.00;100144.16;5022611;28;20105;-76
2022/12/07 11:04:41;;;;;;;1.10;1.00;;;;;;;3.32;100.00;100143.00;5024644;28;20042;-76
2022/12/07 11:07:44;;;;;;;1.00;0.90;;;;;;;3.22;100.00;100146.28;5024729;28;20052;-76
2022/12/07 11:10:59;;;;;;;1.58;0.85;;;;;;;3.23;100.00;100141.13;5007172;28;20492;-76
2022/12/07 11:13:30;;;;;;;1.13;0.80;;;;;;;3.19;100.00;100151.47;4999151;22;20048;-74
2022/12/07 11:16:21;;;;;;;1.15;0.93;;;;;;;3.16;100.00;100134.03;5023253;28;20120;-75
2022/12/07 11:18:58;;;;;;;1.65;0.80;;;;;;;3.26;100.00;100148.13;5025374;28;20061;-75
2022/12/07 11:21:29;;;;;;;1.10;0.90;;;;;;;3.29;100.00;100129.91;5030771;28;20037;-75
2022/12/07 11:24:12;;;;;;;0.80;0.80;;;;;;;3.33;100.00;100134.34;5025128;28;20042;-74
2022/12/07 11:27:06;;;;;;;1.77;0.80;;;;;;;3.42;100.00;100134.47;5025983;28;20052;-75
2022/12/07 11:29:47;;;;;;;0.93;0.90;;;;;;;3.50;100.00;100132.88;5027261;28;20495;-75
2022/12/07 11:32:19;;;;;;;2.05;1.10;;;;;;;3.50;100.00;100151.13;5025702;28;20061;-75
2022/12/07 11:35:03;;;;;;;;;;;;;;;3.55;100.00;100132.06;5024569;28;20029;-75